sensor_id;sensor_type;location;lat;lon;timestamp;temperature;humidity
47148;DHT22;32900;47.498;8.738;2022-09-09T00:04:30;15.90;99.90
47148;DHT22;32900;47.498;8.738;2022-09-09T00:07:05;15.90;99.90
47148;DHT22;32900;47.498;8.738;2022-09-09T00:09:46;16.00;99.90
47148;DHT22;32900;47.498;8.738;2022-09-09T00:12:34;16.00;99.90
47148;DHT22;32900;47.498;8.738;2022-09-09T00:15:11;16.00;99.90
47148;DHT22;32900;47.498;8.738;2022-09-09T00:20:39;16.00;99.90
47148;DHT22;32900;47.498;8.738;2022-09-09T00:23:50;16.10;99.90
47148;DHT22;32900;47.498;8.738;2022-09-09T00:26:11;16.10;99.90
47148;DHT22;32900;47.498;8.738;2022-09-09T00:28:52;16.20;99.90
47148;DHT22;32900;47.498;8.738;2022-09-09T00:31:29;16.30;99.90
47148;DHT22;32900;47.498;8.738;2022-09-09T00:34:21;16.20;99.90
47148;DHT22;32900;47.498;8.738;2022-09-09T00:36:50;16.30;99.90
47148;DHT22;32900;47.498;8.738;2022-09-09T00:39:37;16.30;99.90
47148;DHT22;32900;47.498;8.738;2022-09-09T00:42:35;16.30;99.90
47148;DHT22;32900;47.498;8.738;2022-09-09T00:48:01;16.20;99.90
47148;DHT22;32900;47.498;8.738;2022-09-09T00:50:48;16.20;99.90
47148;DHT22;32900;47.498;8.738;2022-09-09T00:58:36;16.10;99.90
47148;DHT22;32900;47.498;8.738;2022-09-09T01:01:06;16.10;99.90
47148;DHT22;32900;47.498;8.738;2022-09-09T01:03:40;16.10;99.90
47148;DHT22;32900;47.498;8.738;2022-09-09T01:06:20;16.10;99.90
47148;DHT22;32900;47.498;8.738;2022-09-09T01:15:41;16.20;99.90
47148;DHT22;32900;47.498;8.738;2022-09-09T01:17:46;16.10;99.90
47148;DHT22;32900;47.498;8.738;2022-09-09T01:28:51;15.90;99.90
47148;DHT22;32900;47.498;8.738;2022-09-09T01:34:16;15.80;99.90
47148;DHT22;32900;47.498;8.738;2022-09-09T01:37:19;15.70;99.90
47148;DHT22;32900;47.498;8.738;2022-09-09T01:39:43;15.70;99.90
47148;DHT22;32900;47.498;8.738;2022-09-09T01:42:13;15.60;99.90
47148;DHT22;32900;47.498;8.738;2022-09-09T01:44:41;15.70;99.90
47148;DHT22;32900;47.498;8.738;2022-09-09T01:47:09;15.70;99.90
47148;DHT22;32900;47.498;8.738;2022-09-09T01:49:36;15.70;99.90
47148;DHT22;32900;47.498;8.738;2022-09-09T01:52:05;15.60;99.90
47148;DHT22;32900;47.498;8.738;2022-09-09T01:54:36;15.60;99.90
47148;DHT22;32900;47.498;8.738;2022-09-09T02:04:48;15.60;99.90
47148;DHT22;32900;47.498;8.738;2022-09-09T02:12:33;15.50;99.90
47148;DHT22;32900;47.498;8.738;2022-09-09T02:15:04;15.50;99.90
47148;DHT22;32900;47.498;8.738;2022-09-09T02:17:36;15.60;99.90
47148;DHT22;32900;47.498;8.738;2022-09-09T02:20:12;15.70;99.90
47148;DHT22;32900;47.498;8.738;2022-09-09T02:59:04;15.60;99.90
47148;DHT22;32900;47.498;8.738;2022-09-09T03:01:31;15.60;99.90
47148;DHT22;32900;47.498;8.738;2022-09-09T03:03:58;15.50;99.90
47148;DHT22;32900;47.498;8.738;2022-09-09T03:06:25;15.60;99.90
47148;DHT22;32900;47.498;8.738;2022-09-09T03:08:51;15.70;99.90
47148;DHT22;32900;47.498;8.738;2022-09-09T03:11:19;15.60;99.90
47148;DHT22;32900;47.498;8.738;2022-09-09T03:13:46;15.60;99.90
47148;DHT22;32900;47.498;8.738;2022-09-09T03:16:13;15.60;99.90
47148;DHT22;32900;47.498;8.738;2022-09-09T03:18:41;15.70;99.90
47148;DHT22;32900;47.498;8.738;2022-09-09T03:21:08;15.80;99.90
47148;DHT22;32900;47.498;8.738;2022-09-09T03:23:35;15.80;99.90
47148;DHT22;32900;47.498;8.738;2022-09-09T03:26:02;15.80;99.90
47148;DHT22;32900;47.498;8.738;2022-09-09T03:28:29;15.80;99.90
47148;DHT22;32900;47.498;8.738;2022-09-09T03:30:59;15.70;99.90
47148;DHT22;32900;47.498;8.738;2022-09-09T03:33:26;15.70;99.90
47148;DHT22;32900;47.498;8.738;2022-09-09T03:35:54;15.80;99.90
47148;DHT22;32900;47.498;8.738;2022-09-09T03:38:25;15.80;99.90
47148;DHT22;32900;47.498;8.738;2022-09-09T03:40:54;15.90;99.90
47148;DHT22;32900;47.498;8.738;2022-09-09T03:43:22;15.90;99.90
47148;DHT22;32900;47.498;8.738;2022-09-09T03:45:49;16.00;99.90
47148;DHT22;32900;47.498;8.738;2022-09-09T03:48:17;15.90;99.90
47148;DHT22;32900;47.498;8.738;2022-09-09T03:50:48;15.90;99.90
47148;DHT22;32900;47.498;8.738;2022-09-09T03:53:17;15.90;99.90
47148;DHT22;32900;47.498;8.738;2022-09-09T03:55:46;15.90;99.90
47148;DHT22;32900;47.498;8.738;2022-09-09T03:58:14;15.90;99.90
47148;DHT22;32900;47.498;8.738;2022-09-09T04:00:41;15.90;99.90
47148;DHT22;32900;47.498;8.738;2022-09-09T04:03:09;16.00;99.90
47148;DHT22;32900;47.498;8.738;2022-09-09T04:05:36;16.00;99.90
47148;DHT22;32900;47.498;8.738;2022-09-09T04:08:06;16.10;99.90
47148;DHT22;32900;47.498;8.738;2022-09-09T04:10:33;16.00;99.90
47148;DHT22;32900;47.498;8.738;2022-09-09T04:13:01;16.00;99.90
47148;DHT22;32900;47.498;8.738;2022-09-09T04:15:28;16.00;99.90
47148;DHT22;32900;47.498;8.738;2022-09-09T04:17:55;16.00;99.90
47148;DHT22;32900;47.498;8.738;2022-09-09T04:20:23;16.00;99.90
47148;DHT22;32900;47.498;8.738;2022-09-09T04:22:50;16.00;99.90
47148;DHT22;32900;47.498;8.738;2022-09-09T04:25:16;15.90;99.90
47148;DHT22;32900;47.498;8.738;2022-09-09T04:27:43;15.90;99.90
47148;DHT22;32900;47.498;8.738;2022-09-09T04:30:10;15.90;99.90
47148;DHT22;32900;47.498;8.738;2022-09-09T04:32:38;16.00;99.90
47148;DHT22;32900;47.498;8.738;2022-09-09T04:35:05;15.90;99.90
47148;DHT22;32900;47.498;8.738;2022-09-09T04:37:32;15.90;99.90
47148;DHT22;32900;47.498;8.738;2022-09-09T04:39:58;15.90;99.90
47148;DHT22;32900;47.498;8.738;2022-09-09T04:42:28;15.90;99.90
47148;DHT22;32900;47.498;8.738;2022-09-09T04:44:55;15.90;99.90
47148;DHT22;32900;47.498;8.738;2022-09-09T04:47:22;15.80;99.90
47148;DHT22;32900;47.498;8.738;2022-09-09T04:49:48;15.90;99.90
47148;DHT22;32900;47.498;8.738;2022-09-09T04:52:16;15.90;99.90
47148;DHT22;32900;47.498;8.738;2022-09-09T04:54:43;15.90;99.90
47148;DHT22;32900;47.498;8.738;2022-09-09T04:57:12;15.70;99.90
47148;DHT22;32900;47.498;8.738;2022-09-09T04:59:44;15.80;99.90
47148;DHT22;32900;47.498;8.738;2022-09-09T05:02:12;15.90;99.90
47148;DHT22;32900;47.498;8.738;2022-09-09T05:04:39;15.70;99.90
47148;DHT22;32900;47.498;8.738;2022-09-09T05:07:07;15.80;99.90
47148;DHT22;32900;47.498;8.738;2022-09-09T05:09:34;15.90;99.90
47148;DHT22;32900;47.498;8.738;2022-09-09T05:12:01;15.90;99.90
47148;DHT22;32900;47.498;8.738;2022-09-09T05:14:30;15.60;99.90
47148;DHT22;32900;47.498;8.738;2022-09-09T05:16:57;15.80;99.90
47148;DHT22;32900;47.498;8.738;2022-09-09T05:19:24;15.80;99.90
47148;DHT22;32900;47.498;8.738;2022-09-09T05:21:51;15.80;99.90
47148;DHT22;32900;47.498;8.738;2022-09-09T05:24:18;15.80;99.90
47148;DHT22;32900;47.498;8.738;2022-09-09T05:26:45;15.90;99.90
47148;DHT22;32900;47.498;8.738;2022-09-09T05:29:11;16.00;99.90
47148;DHT22;32900;47.498;8.738;2022-09-09T05:31:38;15.90;99.90
47148;DHT22;32900;47.498;8.738;2022-09-09T05:34:06;15.80;99.90
47148;DHT22;32900;47.498;8.738;2022-09-09T05:36:33;15.80;99.90
47148;DHT22;32900;47.498;8.738;2022-09-09T05:39:00;15.80;99.90
47148;DHT22;32900;47.498;8.738;2022-09-09T05:41:27;16.00;99.90
47148;DHT22;32900;47.498;8.738;2022-09-09T05:43:55;15.80;99.90
47148;DHT22;32900;47.498;8.738;2022-09-09T05:46:24;15.80;99.90
47148;DHT22;32900;47.498;8.738;2022-09-09T05:48:52;15.80;99.90
47148;DHT22;32900;47.498;8.738;2022-09-09T05:51:22;15.80;99.90
47148;DHT22;32900;47.498;8.738;2022-09-09T05:53:51;15.90;99.90
47148;DHT22;32900;47.498;8.738;2022-09-09T05:56:24;16.00;99.90
47148;DHT22;32900;47.498;8.738;2022-09-09T05:58:55;16.00;99.90
47148;DHT22;32900;47.498;8.738;2022-09-09T06:01:28;16.00;99.90
47148;DHT22;32900;47.498;8.738;2022-09-09T06:03:56;15.90;99.90
47148;DHT22;32900;47.498;8.738;2022-09-09T06:06:25;16.10;99.90
47148;DHT22;32900;47.498;8.738;2022-09-09T06:08:55;16.10;99.90
47148;DHT22;32900;47.498;8.738;2022-09-09T06:11:26;16.10;99.90
47148;DHT22;32900;47.498;8.738;2022-09-09T06:13:53;16.10;99.90
47148;DHT22;32900;47.498;8.738;2022-09-09T06:16:23;16.20;99.90
47148;DHT22;32900;47.498;8.738;2022-09-09T06:18:51;16.30;99.90
47148;DHT22;32900;47.498;8.738;2022-09-09T06:21:26;16.30;99.90
47148;DHT22;32900;47.498;8.738;2022-09-09T06:23:53;16.40;99.90
47148;DHT22;32900;47.498;8.738;2022-09-09T06:26:28;16.30;99.90
47148;DHT22;32900;47.498;8.738;2022-09-09T06:28:57;16.20;99.90
47148;DHT22;32900;47.498;8.738;2022-09-09T06:31:26;16.10;99.90
47148;DHT22;32900;47.498;8.738;2022-09-09T06:33:57;16.20;99.90
47148;DHT22;32900;47.498;8.738;2022-09-09T06:36:33;16.30;99.90
47148;DHT22;32900;47.498;8.738;2022-09-09T06:39:00;16.30;99.90
47148;DHT22;32900;47.498;8.738;2022-09-09T06:41:29;16.30;99.90
47148;DHT22;32900;47.498;8.738;2022-09-09T06:43:56;16.30;99.90
47148;DHT22;32900;47.498;8.738;2022-09-09T06:46:28;16.30;99.90
47148;DHT22;32900;47.498;8.738;2022-09-09T06:48:56;16.30;99.90
47148;DHT22;32900;47.498;8.738;2022-09-09T06:51:25;16.30;99.90
47148;DHT22;32900;47.498;8.738;2022-09-09T06:53:57;16.20;99.90
47148;DHT22;32900;47.498;8.738;2022-09-09T06:56:34;16.30;99.90
47148;DHT22;32900;47.498;8.738;2022-09-09T06:59:04;16.40;99.90
47148;DHT22;32900;47.498;8.738;2022-09-09T07:01:34;16.30;99.90
47148;DHT22;32900;47.498;8.738;2022-09-09T07:04:03;16.40;99.90
47148;DHT22;32900;47.498;8.738;2022-09-09T07:06:40;16.40;99.90
47148;DHT22;32900;47.498;8.738;2022-09-09T07:09:17;16.60;99.90
47148;DHT22;32900;47.498;8.738;2022-09-09T07:11:46;16.60;99.90
47148;DHT22;32900;47.498;8.738;2022-09-09T07:14:13;16.50;99.90
47148;DHT22;32900;47.498;8.738;2022-09-09T07:16:41;16.40;99.90
47148;DHT22;32900;47.498;8.738;2022-09-09T07:19:09;16.60;99.90
47148;DHT22;32900;47.498;8.738;2022-09-09T07:21:37;16.70;99.90
47148;DHT22;32900;47.498;8.738;2022-09-09T07:24:03;16.70;99.90
47148;DHT22;32900;47.498;8.738;2022-09-09T07:26:34;16.70;99.90
47148;DHT22;32900;47.498;8.738;2022-09-09T07:29:01;16.70;99.90
47148;DHT22;32900;47.498;8.738;2022-09-09T07:31:31;16.80;99.90
47148;DHT22;32900;47.498;8.738;2022-09-09T07:33:59;16.80;99.90
47148;DHT22;32900;47.498;8.738;2022-09-09T07:36:34;16.80;99.90
47148;DHT22;32900;47.498;8.738;2022-09-09T07:39:06;16.90;99.90
47148;DHT22;32900;47.498;8.738;2022-09-09T07:41:39;17.10;99.90
47148;DHT22;32900;47.498;8.738;2022-09-09T07:44:15;17.20;99.90
47148;DHT22;32900;47.498;8.738;2022-09-09T07:46:43;17.60;99.90
47148;DHT22;32900;47.498;8.738;2022-09-09T07:49:12;17.60;99.90
47148;DHT22;32900;47.498;8.738;2022-09-09T07:51:41;17.60;99.90
47148;DHT22;32900;47.498;8.738;2022-09-09T07:54:10;17.40;99.90
47148;DHT22;32900;47.498;8.738;2022-09-09T07:56:39;17.60;99.90
47148;DHT22;32900;47.498;8.738;2022-09-09T07:59:06;17.60;99.90
47148;DHT22;32900;47.498;8.738;2022-09-09T08:01:36;17.50;99.90
47148;DHT22;32900;47.498;8.738;2022-09-09T08:04:13;17.70;99.90
47148;DHT22;32900;47.498;8.738;2022-09-09T08:06:46;17.40;99.90
47148;DHT22;32900;47.498;8.738;2022-09-09T08:09:14;17.20;99.90
47148;DHT22;32900;47.498;8.738;2022-09-09T08:11:41;17.20;99.90
47148;DHT22;32900;47.498;8.738;2022-09-09T08:14:09;17.40;99.90
47148;DHT22;32900;47.498;8.738;2022-09-09T08:16:39;17.60;99.90
47148;DHT22;32900;47.498;8.738;2022-09-09T08:19:07;18.00;99.90
47148;DHT22;32900;47.498;8.738;2022-09-09T08:21:36;17.80;99.90
47148;DHT22;32900;47.498;8.738;2022-09-09T08:24:05;17.90;99.90
47148;DHT22;32900;47.498;8.738;2022-09-09T08:26:34;17.90;99.90
47148;DHT22;32900;47.498;8.738;2022-09-09T08:29:04;18.10;99.90
47148;DHT22;32900;47.498;8.738;2022-09-09T08:31:34;18.00;99.90
47148;DHT22;32900;47.498;8.738;2022-09-09T08:34:02;18.10;99.90
47148;DHT22;32900;47.498;8.738;2022-09-09T08:36:32;18.10;99.90
47148;DHT22;32900;47.498;8.738;2022-09-09T08:39:04;18.30;99.90
47148;DHT22;32900;47.498;8.738;2022-09-09T08:55:58;18.90;99.90
47148;DHT22;32900;47.498;8.738;2022-09-09T08:58:28;18.20;99.90
47148;DHT22;32900;47.498;8.738;2022-09-09T09:06:26;18.60;99.90
47148;DHT22;32900;47.498;8.738;2022-09-09T09:11:52;18.20;99.90
47148;DHT22;32900;47.498;8.738;2022-09-09T09:14:26;18.20;99.90
47148;DHT22;32900;47.498;8.738;2022-09-09T09:17:04;18.30;99.90
47148;DHT22;32900;47.498;8.738;2022-09-09T09:19:34;18.60;99.90
47148;DHT22;32900;47.498;8.738;2022-09-09T09:30:14;19.30;99.90
47148;DHT22;32900;47.498;8.738;2022-09-09T09:33:22;19.30;99.90
47148;DHT22;32900;47.498;8.738;2022-09-09T09:35:50;19.00;99.90
47148;DHT22;32900;47.498;8.738;2022-09-09T09:38:25;18.70;99.90
47148;DHT22;32900;47.498;8.738;2022-09-09T09:41:13;18.60;99.90
47148;DHT22;32900;47.498;8.738;2022-09-09T09:43:41;18.60;99.90
47148;DHT22;32900;47.498;8.738;2022-09-09T09:46:23;18.70;99.90
47148;DHT22;32900;47.498;8.738;2022-09-09T09:49:05;18.60;99.90
47148;DHT22;32900;47.498;8.738;2022-09-09T09:51:33;18.60;99.90
47148;DHT22;32900;47.498;8.738;2022-09-09T09:54:28;18.60;99.90
47148;DHT22;32900;47.498;8.738;2022-09-09T09:56:56;18.80;99.90
47148;DHT22;32900;47.498;8.738;2022-09-09T09:59:43;18.90;99.90
47148;DHT22;32900;47.498;8.738;2022-09-09T10:04:39;19.00;99.90
47148;DHT22;32900;47.498;8.738;2022-09-09T10:07:20;19.20;99.90
47148;DHT22;32900;47.498;8.738;2022-09-09T10:09:57;19.50;99.90
47148;DHT22;32900;47.498;8.738;2022-09-09T10:12:36;19.50;99.90
47148;DHT22;32900;47.498;8.738;2022-09-09T10:15:21;19.30;99.90
47148;DHT22;32900;47.498;8.738;2022-09-09T10:20:49;18.90;99.90
47148;DHT22;32900;47.498;8.738;2022-09-09T10:23:29;18.70;99.90
47148;DHT22;32900;47.498;8.738;2022-09-09T10:29:07;18.50;99.90
47148;DHT22;32900;47.498;8.738;2022-09-09T10:31:49;18.50;99.90
47148;DHT22;32900;47.498;8.738;2022-09-09T10:37:19;18.30;99.90
47148;DHT22;32900;47.498;8.738;2022-09-09T10:39:52;18.40;99.90
47148;DHT22;32900;47.498;8.738;2022-09-09T10:42:27;18.30;99.90
47148;DHT22;32900;47.498;8.738;2022-09-09T10:45:10;18.20;99.90
47148;DHT22;32900;47.498;8.738;2022-09-09T10:48:03;18.10;99.90
47148;DHT22;32900;47.498;8.738;2022-09-09T10:53:41;18.00;99.90
47148;DHT22;32900;47.498;8.738;2022-09-09T10:56:12;17.80;99.90
47148;DHT22;32900;47.498;8.738;2022-09-09T10:58:52;18.30;99.90
47148;DHT22;32900;47.498;8.738;2022-09-09T11:01:41;18.80;99.90
47148;DHT22;32900;47.498;8.738;2022-09-09T11:04:29;19.60;99.90
47148;DHT22;32900;47.498;8.738;2022-09-09T11:07:01;19.80;99.90
47148;DHT22;32900;47.498;8.738;2022-09-09T11:09:42;19.50;99.90
47148;DHT22;32900;47.498;8.738;2022-09-09T11:12:15;20.10;99.90
47148;DHT22;32900;47.498;8.738;2022-09-09T11:14:54;20.50;99.90
47148;DHT22;32900;47.498;8.738;2022-09-09T11:17:33;20.00;99.90
47148;DHT22;32900;47.498;8.738;2022-09-09T11:20:02;19.90;99.90
47148;DHT22;32900;47.498;8.738;2022-09-09T11:22:44;19.90;99.90
47148;DHT22;32900;47.498;8.738;2022-09-09T11:44:39;20.20;99.90
47148;DHT22;32900;47.498;8.738;2022-09-09T11:47:28;21.00;99.90
47148;DHT22;32900;47.498;8.738;2022-09-09T11:52:46;21.80;99.90
47148;DHT22;32900;47.498;8.738;2022-09-09T12:00:46;20.70;99.90
47148;DHT22;32900;47.498;8.738;2022-09-09T12:06:58;20.10;99.90
47148;DHT22;32900;47.498;8.738;2022-09-09T12:09:56;20.90;99.90
47148;DHT22;32900;47.498;8.738;2022-09-09T12:17:31;22.20;99.90
47148;DHT22;32900;47.498;8.738;2022-09-09T12:20:21;22.30;99.90
47148;DHT22;32900;47.498;8.738;2022-09-09T12:23:04;22.40;99.90
47148;DHT22;32900;47.498;8.738;2022-09-09T12:25:53;22.20;99.90
47148;DHT22;32900;47.498;8.738;2022-09-09T12:28:43;21.60;99.90
47148;DHT22;32900;47.498;8.738;2022-09-09T12:37:38;22.60;99.90
47148;DHT22;32900;47.498;8.738;2022-09-09T12:40:23;22.90;99.90
47148;DHT22;32900;47.498;8.738;2022-09-09T12:42:50;22.70;99.90
47148;DHT22;32900;47.498;8.738;2022-09-09T12:45:24;22.10;99.90
47148;DHT22;32900;47.498;8.738;2022-09-09T12:47:59;21.80;99.90
47148;DHT22;32900;47.498;8.738;2022-09-09T12:50:35;22.70;99.90
47148;DHT22;32900;47.498;8.738;2022-09-09T12:53:27;22.50;99.90
47148;DHT22;32900;47.498;8.738;2022-09-09T12:56:09;22.30;99.90
47148;DHT22;32900;47.498;8.738;2022-09-09T12:58:37;22.30;99.90
47148;DHT22;32900;47.498;8.738;2022-09-09T13:01:05;22.80;99.90
47148;DHT22;32900;47.498;8.738;2022-09-09T13:03:33;21.90;99.90
47148;DHT22;32900;47.498;8.738;2022-09-09T13:06:16;21.50;99.90
47148;DHT22;32900;47.498;8.738;2022-09-09T13:08:44;21.40;99.90
47148;DHT22;32900;47.498;8.738;2022-09-09T13:11:16;21.10;99.90
47148;DHT22;32900;47.498;8.738;2022-09-09T13:13:50;21.30;99.90
47148;DHT22;32900;47.498;8.738;2022-09-09T13:16:28;21.80;99.90
47148;DHT22;32900;47.498;8.738;2022-09-09T13:19:10;21.70;99.90
47148;DHT22;32900;47.498;8.738;2022-09-09T13:21:40;21.50;99.90
47148;DHT22;32900;47.498;8.738;2022-09-09T13:24:26;21.50;99.90
47148;DHT22;32900;47.498;8.738;2022-09-09T13:26:57;21.40;99.90
47148;DHT22;32900;47.498;8.738;2022-09-09T13:29:24;21.30;99.90
47148;DHT22;32900;47.498;8.738;2022-09-09T13:31:53;21.60;99.90
47148;DHT22;32900;47.498;8.738;2022-09-09T13:34:28;22.60;99.90
47148;DHT22;32900;47.498;8.738;2022-09-09T13:37:02;23.30;99.90
47148;DHT22;32900;47.498;8.738;2022-09-09T13:39:30;24.00;99.90
47148;DHT22;32900;47.498;8.738;2022-09-09T13:41:57;24.20;99.90
47148;DHT22;32900;47.498;8.738;2022-09-09T13:44:27;25.00;99.90
47148;DHT22;32900;47.498;8.738;2022-09-09T13:47:04;25.60;99.90
47148;DHT22;32900;47.498;8.738;2022-09-09T13:49:36;24.80;99.90
47148;DHT22;32900;47.498;8.738;2022-09-09T13:54:32;23.20;99.90
47148;DHT22;32900;47.498;8.738;2022-09-09T13:56:59;23.10;99.90
47148;DHT22;32900;47.498;8.738;2022-09-09T13:59:27;23.00;99.90
47148;DHT22;32900;47.498;8.738;2022-09-09T14:02:15;24.30;99.90
47148;DHT22;32900;47.498;8.738;2022-09-09T14:04:44;24.90;99.60
47148;DHT22;32900;47.498;8.738;2022-09-09T14:07:17;25.00;99.40
47148;DHT22;32900;47.498;8.738;2022-09-09T14:09:44;24.70;98.10
47148;DHT22;32900;47.498;8.738;2022-09-09T14:12:16;23.80;99.90
47148;DHT22;32900;47.498;8.738;2022-09-09T14:14:43;23.90;99.60
47148;DHT22;32900;47.498;8.738;2022-09-09T14:17:10;24.70;98.60
47148;DHT22;32900;47.498;8.738;2022-09-09T14:19:37;25.10;97.80
47148;DHT22;32900;47.498;8.738;2022-09-09T14:22:03;24.70;98.30
47148;DHT22;32900;47.498;8.738;2022-09-09T14:24:30;23.70;98.40
47148;DHT22;32900;47.498;8.738;2022-09-09T14:26:57;23.50;99.30
47148;DHT22;32900;47.498;8.738;2022-09-09T14:29:23;23.10;99.40
47148;DHT22;32900;47.498;8.738;2022-09-09T14:31:53;22.80;99.80
47148;DHT22;32900;47.498;8.738;2022-09-09T14:34:19;22.90;99.60
47148;DHT22;32900;47.498;8.738;2022-09-09T14:36:46;24.00;98.60
47148;DHT22;32900;47.498;8.738;2022-09-09T14:39:13;23.70;99.40
47148;DHT22;32900;47.498;8.738;2022-09-09T14:41:40;23.40;98.20
47148;DHT22;32900;47.498;8.738;2022-09-09T14:44:07;23.90;99.00
47148;DHT22;32900;47.498;8.738;2022-09-09T14:46:35;25.20;98.60
47148;DHT22;32900;47.498;8.738;2022-09-09T14:49:01;25.90;98.30
47148;DHT22;32900;47.498;8.738;2022-09-09T14:51:28;24.60;98.50
47148;DHT22;32900;47.498;8.738;2022-09-09T14:53:57;24.40;98.60
47148;DHT22;32900;47.498;8.738;2022-09-09T14:56:27;24.60;98.80
47148;DHT22;32900;47.498;8.738;2022-09-09T14:58:55;25.00;98.20
47148;DHT22;32900;47.498;8.738;2022-09-09T15:01:23;25.10;98.00
47148;DHT22;32900;47.498;8.738;2022-09-09T15:04:01;25.00;97.40
47148;DHT22;32900;47.498;8.738;2022-09-09T15:06:30;25.50;98.80
47148;DHT22;32900;47.498;8.738;2022-09-09T15:08:58;25.70;97.30
47148;DHT22;32900;47.498;8.738;2022-09-09T15:11:30;25.70;97.30
47148;DHT22;32900;47.498;8.738;2022-09-09T15:13:57;25.60;96.60
47148;DHT22;32900;47.498;8.738;2022-09-09T15:16:27;25.30;98.00
47148;DHT22;32900;47.498;8.738;2022-09-09T15:18:57;25.90;97.30
47148;DHT22;32900;47.498;8.738;2022-09-09T15:21:27;26.80;98.50
47148;DHT22;32900;47.498;8.738;2022-09-09T15:23:55;26.20;96.30
47148;DHT22;32900;47.498;8.738;2022-09-09T15:26:22;26.40;97.30
47148;DHT22;32900;47.498;8.738;2022-09-09T15:28:49;26.10;96.10
47148;DHT22;32900;47.498;8.738;2022-09-09T15:31:22;25.20;95.80
47148;DHT22;32900;47.498;8.738;2022-09-09T15:39:04;25.50;96.70
47148;DHT22;32900;47.498;8.738;2022-09-09T15:41:31;26.10;96.80
47148;DHT22;32900;47.498;8.738;2022-09-09T15:43:58;26.00;96.30
47148;DHT22;32900;47.498;8.738;2022-09-09T15:46:34;25.50;97.30
47148;DHT22;32900;47.498;8.738;2022-09-09T15:49:11;26.20;98.40
47148;DHT22;32900;47.498;8.738;2022-09-09T15:51:41;26.60;96.40
47148;DHT22;32900;47.498;8.738;2022-09-09T15:54:12;26.40;96.60
47148;DHT22;32900;47.498;8.738;2022-09-09T15:56:40;26.30;96.50
47148;DHT22;32900;47.498;8.738;2022-09-09T15:59:07;25.60;95.30
47148;DHT22;32900;47.498;8.738;2022-09-09T16:01:35;24.30;96.30
47148;DHT22;32900;47.498;8.738;2022-09-09T16:04:02;24.30;96.40
47148;DHT22;32900;47.498;8.738;2022-09-09T16:06:30;25.00;96.50
47148;DHT22;32900;47.498;8.738;2022-09-09T16:08:58;25.00;96.30
47148;DHT22;32900;47.498;8.738;2022-09-09T16:11:30;24.60;97.40
47148;DHT22;32900;47.498;8.738;2022-09-09T16:13:59;24.70;97.70
47148;DHT22;32900;47.498;8.738;2022-09-09T16:16:28;24.90;97.50
47148;DHT22;32900;47.498;8.738;2022-09-09T16:19:02;25.10;98.10
47148;DHT22;32900;47.498;8.738;2022-09-09T16:21:32;25.10;97.20
47148;DHT22;32900;47.498;8.738;2022-09-09T16:24:01;24.60;97.90
47148;DHT22;32900;47.498;8.738;2022-09-09T16:26:33;24.10;99.50
47148;DHT22;32900;47.498;8.738;2022-09-09T16:29:01;23.00;98.80
47148;DHT22;32900;47.498;8.738;2022-09-09T16:31:30;22.90;99.20
47148;DHT22;32900;47.498;8.738;2022-09-09T16:33:59;22.70;99.70
47148;DHT22;32900;47.498;8.738;2022-09-09T16:36:28;22.60;99.90
47148;DHT22;32900;47.498;8.738;2022-09-09T16:38:58;22.40;99.70
47148;DHT22;32900;47.498;8.738;2022-09-09T16:41:27;22.10;99.40
47148;DHT22;32900;47.498;8.738;2022-09-09T16:44:01;21.80;99.90
47148;DHT22;32900;47.498;8.738;2022-09-09T16:46:30;21.70;99.90
47148;DHT22;32900;47.498;8.738;2022-09-09T16:48:58;21.60;99.90
47148;DHT22;32900;47.498;8.738;2022-09-09T16:51:29;21.30;99.90
47148;DHT22;32900;47.498;8.738;2022-09-09T16:53:58;21.20;99.90
47148;DHT22;32900;47.498;8.738;2022-09-09T16:56:28;21.20;99.90
47148;DHT22;32900;47.498;8.738;2022-09-09T16:58:58;21.20;99.90
47148;DHT22;32900;47.498;8.738;2022-09-09T17:01:27;20.90;99.90
47148;DHT22;32900;47.498;8.738;2022-09-09T17:03:59;20.80;99.90
47148;DHT22;32900;47.498;8.738;2022-09-09T17:06:29;20.90;99.90
47148;DHT22;32900;47.498;8.738;2022-09-09T17:08:58;21.00;99.90
47148;DHT22;32900;47.498;8.738;2022-09-09T17:11:25;20.90;99.90
47148;DHT22;32900;47.498;8.738;2022-09-09T17:13:53;20.90;99.90
47148;DHT22;32900;47.498;8.738;2022-09-09T17:16:22;20.90;99.90
47148;DHT22;32900;47.498;8.738;2022-09-09T17:18:52;20.70;99.90
47148;DHT22;32900;47.498;8.738;2022-09-09T17:21:22;20.50;99.90
47148;DHT22;32900;47.498;8.738;2022-09-09T17:23:49;20.40;99.90
47148;DHT22;32900;47.498;8.738;2022-09-09T17:26:18;20.10;99.90
47148;DHT22;32900;47.498;8.738;2022-09-09T17:28:45;19.70;99.90
47148;DHT22;32900;47.498;8.738;2022-09-09T17:31:14;19.20;99.90
47148;DHT22;32900;47.498;8.738;2022-09-09T17:33:44;18.90;99.90
47148;DHT22;32900;47.498;8.738;2022-09-09T17:38:41;18.60;99.90
47148;DHT22;32900;47.498;8.738;2022-09-09T17:41:15;18.40;99.90
47148;DHT22;32900;47.498;8.738;2022-09-09T17:43:42;18.20;99.90
47148;DHT22;32900;47.498;8.738;2022-09-09T17:46:17;18.20;99.90
47148;DHT22;32900;47.498;8.738;2022-09-09T17:48:46;18.20;99.90
47148;DHT22;32900;47.498;8.738;2022-09-09T17:51:16;17.90;99.90
47148;DHT22;32900;47.498;8.738;2022-09-09T17:53:46;18.00;99.90
47148;DHT22;32900;47.498;8.738;2022-09-09T17:56:16;17.90;99.90
47148;DHT22;32900;47.498;8.738;2022-09-09T17:58:43;18.10;99.90
47148;DHT22;32900;47.498;8.738;2022-09-09T18:01:13;18.00;99.90
47148;DHT22;32900;47.498;8.738;2022-09-09T18:03:42;17.90;99.90
47148;DHT22;32900;47.498;8.738;2022-09-09T18:06:11;18.00;99.90
47148;DHT22;32900;47.498;8.738;2022-09-09T18:08:39;17.80;99.90
47148;DHT22;32900;47.498;8.738;2022-09-09T18:11:08;17.80;99.90
47148;DHT22;32900;47.498;8.738;2022-09-09T18:13:35;17.70;99.90
47148;DHT22;32900;47.498;8.738;2022-09-09T18:16:06;17.50;99.90
47148;DHT22;32900;47.498;8.738;2022-09-09T18:18:34;17.30;99.90
47148;DHT22;32900;47.498;8.738;2022-09-09T18:23:29;17.60;99.90
47148;DHT22;32900;47.498;8.738;2022-09-09T18:25:57;17.70;99.90
47148;DHT22;32900;47.498;8.738;2022-09-09T18:28:28;17.70;99.90
47148;DHT22;32900;47.498;8.738;2022-09-09T18:30:54;17.60;99.90
47148;DHT22;32900;47.498;8.738;2022-09-09T18:33:21;17.60;99.90
47148;DHT22;32900;47.498;8.738;2022-09-09T18:35:48;17.80;99.90
47148;DHT22;32900;47.498;8.738;2022-09-09T18:38:15;17.90;99.90
47148;DHT22;32900;47.498;8.738;2022-09-09T18:40:43;17.90;99.90
47148;DHT22;32900;47.498;8.738;2022-09-09T18:43:10;18.00;99.90
47148;DHT22;32900;47.498;8.738;2022-09-09T18:45:38;17.60;99.90
47148;DHT22;32900;47.498;8.738;2022-09-09T18:48:04;17.90;99.90
47148;DHT22;32900;47.498;8.738;2022-09-09T18:50:33;17.80;99.90
47148;DHT22;32900;47.498;8.738;2022-09-09T18:52:59;17.70;99.90
47148;DHT22;32900;47.498;8.738;2022-09-09T18:55:26;17.70;99.90
47148;DHT22;32900;47.498;8.738;2022-09-09T18:57:54;17.70;99.90